Time;durP1;ratioP1;P1;durP2;ratioP2;P2;SDS_P1;SDS_P2;PMS_P1;PMS_P2;Temp;Humidity;BMP_temperature;BMP_pressure;BME280_temperature;BME280_humidity;BME280_pressure;Samples;Min_cycle;Max_cycle;Signal;HPM_P1;HPM_P2
2022/12/03 00:01:10;;;;;;;11.50;7.45;;;;;;;;;;5025351;28;20116;-47
2022/12/03 00:03:36;;;;;;;15.88;8.57;;;;;;;;;;5023033;28;20120;-44
2022/12/03 00:06:01;;;;;;;14.10;8.00;;;;;;;;;;5019846;28;20037;-47
2022/12/03 00:08:26;;;;;;;10.30;8.18;;;;;;;;;;5023417;28;20533;-44
2022/12/03 00:10:52;;;;;;;12.07;8.10;;;;;;;;;;5025831;28;20048;-45
2022/12/03 00:13:17;;;;;;;16.08;9.02;;;;;;;;;;5024182;28;20052;-48
2022/12/03 00:15:42;;;;;;;11.30;8.70;;;;;;;;;;5025708;28;20036;-44
2022/12/03 00:18:08;;;;;;;13.18;8.63;;;;;;;;;;5023817;28;20574;-44
2022/12/03 00:20:33;;;;;;;10.98;7.13;;;;;;;;;;5019756;28;20033;-45
2022/12/03 00:22:58;;;;;;;9.98;7.13;;;;;;;;;;5025306;28;20041;-45
2022/12/03 00:25:24;;;;;;;12.05;7.43;;;;;;;;;;5023010;28;20483;-44
2022/12/03 00:27:49;;;;;;;11.00;7.68;;;;;;;;;;5017554;28;20104;-38
2022/12/03 00:30:14;;;;;;;16.63;10.90;;;;;;;;;;5022838;28;20044;-47
2022/12/03 00:32:40;;;;;;;8.85;7.80;;;;;;;;;;5023851;28;20029;-45
2022/12/03 00:35:05;;;;;;;7.15;5.75;;;;;;;;;;5020723;28;20045;-44
2022/12/03 00:37:31;;;;;;;8.98;5.72;;;;;;;;;;5024707;28;20030;-44
2022/12/03 00:39:56;;;;;;;6.97;5.97;;;;;;;;;;5024336;28;20045;-45
2022/12/03 00:42:21;;;;;;;7.82;6.45;;;;;;;;;;5022969;28;20969;-44
2022/12/03 00:44:47;;;;;;;9.60;6.10;;;;;;;;;;5026717;28;20039;-44
2022/12/03 00:47:12;;;;;;;8.52;5.82;;;;;;;;;;5021828;28;20065;-46
2022/12/03 00:49:37;;;;;;;9.25;5.88;;;;;;;;;;5021695;28;20057;-46
2022/12/03 00:52:03;;;;;;;5.60;4.82;;;;;;;;;;5026701;28;20422;-45
2022/12/03 00:54:28;;;;;;;7.10;5.80;;;;;;;;;;5023892;28;20073;-45
2022/12/03 00:56:54;;;;;;;6.50;5.10;;;;;;;;;;5020316;28;20021;-44
2022/12/03 00:59:19;;;;;;;6.30;5.18;;;;;;;;;;5023147;28;20076;-45
2022/12/03 01:01:44;;;;;;;6.55;4.93;;;;;;;;;;5028459;28;20021;-44
2022/12/03 01:04:10;;;;;;;7.25;4.93;;;;;;;;;;5028684;28;20045;-44
2022/12/03 01:06:35;;;;;;;7.22;5.32;;;;;;;;;;5029532;28;20120;-47
2022/12/03 01:09:01;;;;;;;5.47;4.78;;;;;;;;;;5025025;28;20042;-45
2022/12/03 01:11:38;;;;;;;7.45;5.15;;;;;;;;;;5027443;28;20029;-45
2022/12/03 01:14:16;;;;;;;4.82;4.30;;;;;;;;;;5028189;28;20064;-44
2022/12/03 01:16:42;;;;;;;5.63;4.00;;;;;;;;;;5028290;28;20474;-46
2022/12/03 01:19:09;;;;;;;6.75;3.95;;;;;;;;;;5029648;28;20060;-44
2022/12/03 01:21:36;;;;;;;4.55;3.92;;;;;;;;;;5026605;28;20501;-46
2022/12/03 01:24:02;;;;;;;3.72;3.42;;;;;;;;;;5026535;28;20037;-46
2022/12/03 01:26:28;;;;;;;3.83;3.53;;;;;;;;;;5028942;28;20028;-46
2022/12/03 01:28:53;;;;;;;4.00;3.70;;;;;;;;;;5016477;28;20038;-45
2022/12/03 01:34:03;;;;;;;4.22;3.80;;;;;;;;;;5017004;28;20096;-44
2022/12/03 01:36:28;;;;;;;5.07;3.40;;;;;;;;;;5026776;28;20554;-44
2022/12/03 01:38:54;;;;;;;3.55;3.30;;;;;;;;;;5025254;28;20045;-44
2022/12/03 01:41:21;;;;;;;3.97;3.58;;;;;;;;;;5027084;28;20040;-44
2022/12/03 01:43:47;;;;;;;3.30;3.00;;;;;;;;;;5025283;28;20093;-44
2022/12/03 01:46:17;;;;;;;5.50;3.72;;;;;;;;;;5026356;28;20486;-44
2022/12/03 01:48:43;;;;;;;4.03;3.63;;;;;;;;;;5025554;28;20044;-44
2022/12/03 01:51:09;;;;;;;3.63;3.33;;;;;;;;;;5027111;28;20457;-44
2022/12/03 01:53:35;;;;;;;4.90;3.17;;;;;;;;;;5022589;28;20062;-45
2022/12/03 01:56:00;;;;;;;6.75;3.47;;;;;;;;;;5005237;28;20030;-43
2022/12/03 01:58:28;;;;;;;3.53;2.70;;;;;;;;;;5005777;28;20030;-46
2022/12/03 02:00:57;;;;;;;3.75;2.88;;;;;;;;;;5005309;28;20026;-45
2022/12/03 02:03:24;;;;;;;3.45;3.13;;;;;;;;;;5008640;28;20558;-44
2022/12/03 02:05:50;;;;;;;3.33;3.03;;;;;;;;;;5028234;28;20481;-47
2022/12/03 02:08:30;;;;;;;3.03;2.72;;;;;;;;;;5027075;28;20033;-44
2022/12/03 02:11:05;;;;;;;3.40;3.08;;;;;;;;;;5026114;28;20037;-45
2022/12/03 02:13:31;;;;;;;5.70;3.10;;;;;;;;;;5029214;28;20115;-44
2022/12/03 02:15:57;;;;;;;3.10;2.90;;;;;;;;;;5029588;28;20486;-45
2022/12/03 02:18:22;;;;;;;3.38;3.08;;;;;;;;;;5024954;28;20071;-45
2022/12/03 02:21:22;;;;;;;3.28;2.97;;;;;;;;;;5029330;28;20030;-44
2022/12/03 02:23:53;;;;;;;2.78;2.58;;;;;;;;;;5022804;28;20132;-47
2022/12/03 02:26:18;;;;;;;3.30;3.00;;;;;;;;;;5008910;28;20025;-44
2022/12/03 02:28:44;;;;;;;3.53;2.67;;;;;;;;;;5002366;28;20403;-46
2022/12/03 02:31:09;;;;;;;3.75;2.80;;;;;;;;;;5006771;28;20049;-44
2022/12/03 02:33:35;;;;;;;3.00;2.80;;;;;;;;;;5010895;28;20046;-47
2022/12/03 02:36:00;;;;;;;2.97;2.78;;;;;;;;;;5023710;28;20119;-45
2022/12/03 02:38:28;;;;;;;2.88;2.67;;;;;;;;;;5024217;28;20032;-44
2022/12/03 02:40:57;;;;;;;5.50;2.63;;;;;;;;;;5026216;28;20045;-47
2022/12/03 02:43:23;;;;;;;2.78;2.58;;;;;;;;;;5020900;28;20471;-49
2022/12/03 02:45:55;;;;;;;2.60;2.40;;;;;;;;;;5005112;28;20040;-45
2022/12/03 02:48:31;;;;;;;3.57;2.57;;;;;;;;;;5009138;28;20038;-47
2022/12/03 02:51:01;;;;;;;3.50;2.80;;;;;;;;;;5017024;28;21294;-45
2022/12/03 02:53:29;;;;;;;2.60;2.40;;;;;;;;;;5018210;28;20033;-46
2022/12/03 02:55:57;;;;;;;5.85;2.33;;;;;;;;;;5011642;28;20028;-44
2022/12/03 02:58:24;;;;;;;2.85;2.65;;;;;;;;;;5014874;28;20031;-44
2022/12/03 03:00:51;;;;;;;2.97;2.65;;;;;;;;;;5023690;28;20072;-45
2022/12/03 03:03:18;;;;;;;2.80;2.60;;;;;;;;;;5023444;28;20065;-45
2022/12/03 03:05:44;;;;;;;3.25;2.95;;;;;;;;;;5026165;28;20021;-47
2022/12/03 03:08:10;;;;;;;5.18;2.63;;;;;;;;;;5025849;28;20025;-44
2022/12/03 03:10:38;;;;;;;3.03;2.70;;;;;;;;;;5026421;28;20099;-44
2022/12/03 03:13:08;;;;;;;3.13;2.88;;;;;;;;;;5027122;28;20167;-44
2022/12/03 03:15:36;;;;;;;5.15;2.97;;;;;;;;;;5026569;28;20045;-44
2022/12/03 03:18:01;;;;;;;3.45;3.00;;;;;;;;;;5024300;28;20470;-45
2022/12/03 03:20:27;;;;;;;4.47;3.03;;;;;;;;;;5024278;28;20033;-44
2022/12/03 03:22:52;;;;;;;5.25;3.25;;;;;;;;;;5021627;28;20026;-46
2022/12/03 03:25:20;;;;;;;4.22;2.83;;;;;;;;;;5024455;28;20291;-45
2022/12/03 03:27:45;;;;;;;2.92;2.72;;;;;;;;;;5027162;28;20033;-44
2022/12/03 03:30:12;;;;;;;3.10;2.80;;;;;;;;;;5026563;28;20040;-45
2022/12/03 03:32:38;;;;;;;2.80;2.60;;;;;;;;;;5027777;28;20482;-46
2022/12/03 03:35:05;;;;;;;2.58;2.38;;;;;;;;;;5025301;28;20041;-44
2022/12/03 03:37:31;;;;;;;2.67;2.47;;;;;;;;;;5026879;28;20524;-46
2022/12/03 03:39:56;;;;;;;2.83;2.40;;;;;;;;;;5025243;28;20077;-45
2022/12/03 03:42:22;;;;;;;2.60;2.40;;;;;;;;;;5023283;28;20025;-45
2022/12/03 03:44:48;;;;;;;3.47;2.40;;;;;;;;;;5020821;28;20045;-47
2022/12/03 03:47:14;;;;;;;3.03;2.83;;;;;;;;;;5027246;28;20048;-44
2022/12/03 03:49:40;;;;;;;2.70;2.50;;;;;;;;;;5024332;28;20034;-44
2022/12/03 03:52:08;;;;;;;3.58;2.55;;;;;;;;;;5025722;28;20065;-44
2022/12/03 03:54:34;;;;;;;2.33;2.13;;;;;;;;;;5025532;28;20087;-45
2022/12/03 03:57:00;;;;;;;2.53;2.40;;;;;;;;;;5025619;28;20436;-44
2022/12/03 03:59:25;;;;;;;2.53;2.30;;;;;;;;;;5025956;28;20060;-45
2022/12/03 04:01:51;;;;;;;6.30;2.67;;;;;;;;;;5026810;28;20033;-45
2022/12/03 04:04:21;;;;;;;2.55;2.35;;;;;;;;;;5023030;28;20116;-46
2022/12/03 04:06:47;;;;;;;2.97;2.78;;;;;;;;;;5023680;28;20041;-44
2022/12/03 04:09:12;;;;;;;2.50;2.30;;;;;;;;;;5022390;28;20045;-45
2022/12/03 04:14:22;;;;;;;2.67;2.28;;;;;;;;;;5024048;28;20068;-46
2022/12/03 04:16:47;;;;;;;2.58;2.38;;;;;;;;;;5026035;28;20029;-45
2022/12/03 04:19:12;;;;;;;3.85;2.58;;;;;;;;;;5025109;28;20079;-44
2022/12/03 04:24:22;;;;;;;2.50;2.30;;;;;;;;;;5020625;28;20508;-46
2022/12/03 04:29:31;;;;;;;3.38;2.10;;;;;;;;;;5021569;28;20048;-48
2022/12/03 04:37:23;;;;;;;2.30;2.10;;;;;;;;;;5025520;28;20064;-49
2022/12/03 04:39:49;;;;;;;2.22;2.03;;;;;;;;;;5021470;28;20466;-46
2022/12/03 04:42:14;;;;;;;1.90;1.80;;;;;;;;;;5024919;28;20048;-49
2022/12/03 04:44:39;;;;;;;1.98;1.85;;;;;;;;;;5025145;28;20033;-46
2022/12/03 04:47:11;;;;;;;2.30;2.10;;;;;;;;;;5025222;28;20044;-45
2022/12/03 04:49:42;;;;;;;2.50;2.30;;;;;;;;;;5018669;28;20530;-46
2022/12/03 04:52:09;;;;;;;1.85;1.75;;;;;;;;;;5020696;28;20470;-46
2022/12/03 04:54:34;;;;;;;2.00;1.90;;;;;;;;;;5026295;28;20034;-47
2022/12/03 04:57:00;;;;;;;2.17;2.00;;;;;;;;;;5023181;28;20105;-44
2022/12/03 04:59:26;;;;;;;2.90;2.00;;;;;;;;;;5019504;28;20038;-45
2022/12/03 05:01:51;;;;;;;1.90;1.80;;;;;;;;;;5023708;28;20096;-47
2022/12/03 05:04:17;;;;;;;2.25;2.05;;;;;;;;;;5023517;28;20073;-50
2022/12/03 05:06:42;;;;;;;1.75;1.65;;;;;;;;;;5025175;28;20482;-44
2022/12/03 05:09:08;;;;;;;2.53;1.83;;;;;;;;;;5026077;28;20052;-45
2022/12/03 05:11:34;;;;;;;1.70;1.52;;;;;;;;;;5023264;28;20037;-44
2022/12/03 05:13:59;;;;;;;2.22;1.95;;;;;;;;;;5023971;28;20034;-46
2022/12/03 05:16:24;;;;;;;2.10;2.00;;;;;;;;;;5024336;28;20022;-47
2022/12/03 05:18:50;;;;;;;2.45;2.10;;;;;;;;;;5025861;28;20425;-47
2022/12/03 05:21:15;;;;;;;2.33;1.92;;;;;;;;;;5022248;28;20033;-47
2022/12/03 05:23:41;;;;;;;6.13;1.83;;;;;;;;;;5022151;28;20103;-48
2022/12/03 05:26:07;;;;;;;1.90;1.80;;;;;;;;;;5024617;28;20030;-44
2022/12/03 05:28:32;;;;;;;2.97;1.98;;;;;;;;;;5026252;28;20061;-45
2022/12/03 05:30:57;;;;;;;2.10;1.90;;;;;;;;;;5020011;28;20037;-48
2022/12/03 05:33:23;;;;;;;2.22;1.90;;;;;;;;;;5020350;28;20104;-46
2022/12/03 05:35:48;;;;;;;1.73;1.63;;;;;;;;;;5025062;28;20437;-48
2022/12/03 05:38:13;;;;;;;3.53;2.42;;;;;;;;;;5024786;28;20033;-45
2022/12/03 05:40:39;;;;;;;1.83;1.73;;;;;;;;;;5021903;28;20110;-44
2022/12/03 05:43:04;;;;;;;2.03;1.90;;;;;;;;;;5022915;28;20067;-44
2022/12/03 05:45:32;;;;;;;2.40;2.10;;;;;;;;;;5022573;28;20136;-47
2022/12/03 05:47:59;;;;;;;2.20;2.00;;;;;;;;;;5028046;28;20453;-44
2022/12/03 05:50:27;;;;;;;2.20;1.70;;;;;;;;;;5027389;28;20064;-46
2022/12/03 05:52:52;;;;;;;1.77;1.67;;;;;;;;;;5026850;28;20033;-45
2022/12/03 05:55:18;;;;;;;2.75;2.05;;;;;;;;;;5029265;28;20037;-48
2022/12/03 05:57:44;;;;;;;5.07;1.77;;;;;;;;;;5029154;28;20030;-49
2022/12/03 06:00:16;;;;;;;8.27;1.90;;;;;;;;;;5027264;28;20037;-45
2022/12/03 06:02:42;;;;;;;2.50;1.80;;;;;;;;;;5023763;28;20064;-46
2022/12/03 06:05:08;;;;;;;2.10;1.77;;;;;;;;;;5027788;28;20080;-47
2022/12/03 06:07:34;;;;;;;2.25;1.52;;;;;;;;;;5025741;28;20111;-47
2022/12/03 06:09:59;;;;;;;3.08;1.60;;;;;;;;;;5025864;28;20034;-45
2022/12/03 06:12:24;;;;;;;1.40;1.30;;;;;;;;;;5026713;28;20026;-44
2022/12/03 06:14:50;;;;;;;1.50;1.40;;;;;;;;;;5027550;28;20132;-44
2022/12/03 06:17:16;;;;;;;1.70;1.60;;;;;;;;;;5028239;28;20747;-44
2022/12/03 06:19:41;;;;;;;5.13;1.58;;;;;;;;;;5025573;28;20390;-44
2022/12/03 06:22:06;;;;;;;1.60;1.50;;;;;;;;;;5025470;28;20053;-47
2022/12/03 06:24:32;;;;;;;7.55;1.90;;;;;;;;;;5027343;28;20049;-45
2022/12/03 06:26:57;;;;;;;3.42;1.90;;;;;;;;;;5026411;28;20551;-44
2022/12/03 06:29:22;;;;;;;4.30;2.00;;;;;;;;;;5020878;28;20040;-44
2022/12/03 06:31:48;;;;;;;1.98;1.88;;;;;;;;;;5026600;28;20486;-44
2022/12/03 06:34:13;;;;;;;1.67;1.58;;;;;;;;;;5027930;28;20083;-45
2022/12/03 06:36:38;;;;;;;1.70;1.60;;;;;;;;;;5025236;28;20113;-46
2022/12/03 06:39:04;;;;;;;1.80;1.70;;;;;;;;;;5016857;28;20038;-47
2022/12/03 06:41:29;;;;;;;1.63;1.52;;;;;;;;;;5008243;28;20537;-45
2022/12/03 06:43:55;;;;;;;3.58;1.55;;;;;;;;;;5012248;28;20038;-46
2022/12/03 06:46:20;;;;;;;1.70;1.58;;;;;;;;;;5025956;28;20108;-46
2022/12/03 06:48:45;;;;;;;1.90;1.63;;;;;;;;;;5028957;28;20041;-47
2022/12/03 06:51:11;;;;;;;2.78;1.60;;;;;;;;;;5026140;28;20029;-42
2022/12/03 06:53:36;;;;;;;1.65;1.55;;;;;;;;;;5023272;28;20096;-45
2022/12/03 06:56:02;;;;;;;2.38;2.17;;;;;;;;;;5006355;28;20034;-45
2022/12/03 06:58:27;;;;;;;2.53;2.17;;;;;;;;;;5002188;28;20029;-48
2022/12/03 07:00:52;;;;;;;2.00;1.90;;;;;;;;;;5007137;28;20398;-45
2022/12/03 07:03:18;;;;;;;2.22;2.03;;;;;;;;;;5006708;28;20137;-46
2022/12/03 07:05:43;;;;;;;1.80;1.70;;;;;;;;;;5025707;28;20033;-44
2022/12/03 07:08:08;;;;;;;1.88;1.70;;;;;;;;;;5025960;28;20539;-44
2022/12/03 07:10:34;;;;;;;2.00;1.80;;;;;;;;;;5024694;28;20041;-45
2022/12/03 07:12:59;;;;;;;1.80;1.58;;;;;;;;;;5025967;28;20099;-46
2022/12/03 07:15:24;;;;;;;1.77;1.67;;;;;;;;;;5026853;28;20041;-44
2022/12/03 07:17:50;;;;;;;1.83;1.73;;;;;;;;;;5026418;28;20067;-45
2022/12/03 07:20:15;;;;;;;1.70;1.60;;;;;;;;;;5027140;28;20037;-45
2022/12/03 07:22:41;;;;;;;1.92;1.73;;;;;;;;;;5024814;28;20033;-44
2022/12/03 07:25:07;;;;;;;1.50;1.40;;;;;;;;;;5024420;28;20060;-48
2022/12/03 07:27:32;;;;;;;1.70;1.60;;;;;;;;;;5026238;28;20032;-44
2022/12/03 07:29:57;;;;;;;1.15;1.15;;;;;;;;;;5025075;28;20045;-44
2022/12/03 07:32:23;;;;;;;1.63;1.50;;;;;;;;;;5025323;28;20051;-45
2022/12/03 07:34:48;;;;;;;1.48;1.35;;;;;;;;;;5025758;28;20060;-44
2022/12/03 07:37:13;;;;;;;1.63;1.52;;;;;;;;;;5023925;28;20486;-47
2022/12/03 07:39:39;;;;;;;1.60;1.50;;;;;;;;;;5025636;28;20042;-45
2022/12/03 07:42:04;;;;;;;4.50;1.38;;;;;;;;;;5024576;28;20028;-44
2022/12/03 07:44:30;;;;;;;2.28;1.70;;;;;;;;;;5024956;28;20037;-44
2022/12/03 07:46:56;;;;;;;1.67;1.58;;;;;;;;;;5025386;28;20081;-45
2022/12/03 07:49:22;;;;;;;2.13;1.40;;;;;;;;;;5025684;28;20516;-44
2022/12/03 07:51:52;;;;;;;1.75;1.40;;;;;;;;;;5025761;28;20131;-46
2022/12/03 07:54:19;;;;;;;1.50;1.40;;;;;;;;;;5024959;28;20403;-48
2022/12/03 07:57:03;;;;;;;2.10;1.90;;;;;;;;;;4964463;28;20054;-46
2022/12/03 07:59:28;;;;;;;2.85;1.80;;;;;;;;;;4956826;28;20050;-48
2022/12/03 08:01:54;;;;;;;2.20;2.00;;;;;;;;;;4963689;28;20457;-47
2022/12/03 08:04:20;;;;;;;1.40;1.08;;;;;;;;;;4963616;28;20427;-45
2022/12/03 08:06:46;;;;;;;1.42;1.33;;;;;;;;;;4960550;28;20117;-44
2022/12/03 08:09:12;;;;;;;1.92;1.30;;;;;;;;;;4958424;28;20047;-45
2022/12/03 08:11:37;;;;;;;0.90;0.90;;;;;;;;;;4959287;28;20039;-44
2022/12/03 08:14:17;;;;;;;1.70;1.58;;;;;;;;;;4962216;28;20098;-44
2022/12/03 08:16:44;;;;;;;1.20;1.10;;;;;;;;;;4962108;28;20081;-44
2022/12/03 08:19:11;;;;;;;0.95;0.95;;;;;;;;;;4958784;28;20042;-49
2022/12/03 08:21:37;;;;;;;1.50;1.20;;;;;;;;;;4960364;28;20386;-44
2022/12/03 08:24:13;;;;;;;1.08;1.00;;;;;;;;;;4960140;28;20041;-45
2022/12/03 08:26:39;;;;;;;1.20;1.10;;;;;;;;;;4946045;28;20030;-46
2022/12/03 08:29:09;;;;;;;3.80;1.95;;;;;;;;;;4964407;28;20089;-46
2022/12/03 08:31:34;;;;;;;1.42;1.33;;;;;;;;;;4961754;28;20038;-45
2022/12/03 08:34:21;;;;;;;1.40;1.30;;;;;;;;;;4993683;28;20036;-45
2022/12/03 08:36:50;;;;;;;2.17;1.98;;;;;;;;;;5020910;28;20084;-44
2022/12/03 08:39:29;;;;;;;1.25;1.15;;;;;;;;;;5021077;28;20140;-45
2022/12/03 08:44:51;;;;;;;1.73;1.00;;;;;;;;;;5021045;28;20103;-44
2022/12/03 08:47:22;;;;;;;1.17;1.15;;;;;;;;;;5021149;28;20049;-47
2022/12/03 08:50:02;;;;;;;1.48;1.38;;;;;;;;;;5025423;28;20100;-44
2022/12/03 08:52:33;;;;;;;1.40;1.30;;;;;;;;;;5015929;28;20108;-46
2022/12/03 08:55:01;;;;;;;3.20;2.90;;;;;;;;;;5018760;28;20037;-44
2022/12/03 08:57:28;;;;;;;1.50;1.40;;;;;;;;;;5021222;28;20489;-46
2022/12/03 08:59:58;;;;;;;1.90;1.73;;;;;;;;;;5015981;28;20041;-45
2022/12/03 09:02:33;;;;;;;3.75;3.00;;;;;;;;;;5019343;28;20030;-44
2022/12/03 09:05:12;;;;;;;1.58;1.40;;;;;;;;;;5015749;28;20120;-46
2022/12/03 09:07:37;;;;;;;2.83;2.53;;;;;;;;;;5019225;28;20239;-46
2022/12/03 09:10:02;;;;;;;2.00;1.80;;;;;;;;;;5013125;28;20546;-44
2022/12/03 09:12:28;;;;;;;3.13;1.60;;;;;;;;;;5019428;28;20428;-44
2022/12/03 09:14:53;;;;;;;2.45;2.17;;;;;;;;;;5022945;28;20660;-44
2022/12/03 09:17:18;;;;;;;2.58;2.38;;;;;;;;;;5017835;28;20033;-44
2022/12/03 09:19:44;;;;;;;3.53;1.75;;;;;;;;;;5022279;28;20032;-46
2022/12/03 09:22:10;;;;;;;2.22;1.95;;;;;;;;;;5019464;28;20029;-44
2022/12/03 09:24:36;;;;;;;1.90;1.80;;;;;;;;;;5025656;28;20107;-44
2022/12/03 09:27:01;;;;;;;1.58;1.48;;;;;;;;;;5028766;28;20033;-44
2022/12/03 09:29:26;;;;;;;0.70;0.70;;;;;;;;;;5022172;28;20538;-45
2022/12/03 09:31:52;;;;;;;1.25;1.13;;;;;;;;;;5024345;28;20545;-44
2022/12/03 09:34:17;;;;;;;1.10;1.05;;;;;;;;;;5014826;28;21644;-45
2022/12/03 09:36:42;;;;;;;1.17;1.10;;;;;;;;;;5002140;28;20136;-46
2022/12/03 09:39:08;;;;;;;1.40;1.30;;;;;;;;;;5011817;28;20541;-45
2022/12/03 09:41:33;;;;;;;1.17;1.15;;;;;;;;;;5019638;28;20045;-44
2022/12/03 09:43:59;;;;;;;1.67;1.58;;;;;;;;;;5019352;28;20622;-44
2022/12/03 09:46:25;;;;;;;2.75;1.63;;;;;;;;;;5024757;28;20113;-47
2022/12/03 09:48:50;;;;;;;1.30;1.20;;;;;;;;;;5024862;28;20514;-45
2022/12/03 09:51:16;;;;;;;2.78;2.28;;;;;;;;;;5024920;28;20029;-44
2022/12/03 09:53:42;;;;;;;2.72;1.80;;;;;;;;;;5018638;28;20065;-44
2022/12/03 09:56:14;;;;;;;2.20;1.92;;;;;;;;;;5003207;28;20490;-44
2022/12/03 09:58:41;;;;;;;2.28;1.60;;;;;;;;;;5003325;28;20057;-44
2022/12/03 10:01:12;;;;;;;4.70;1.90;;;;;;;;;;5024172;28;20056;-44
2022/12/03 10:03:45;;;;;;;2.60;1.45;;;;;;;;;;5021118;28;20041;-44
2022/12/03 10:06:14;;;;;;;1.92;1.83;;;;;;;;;;5019820;28;20036;-44
2022/12/03 10:08:41;;;;;;;2.50;2.13;;;;;;;;;;5022008;28;20054;-44
2022/12/03 10:11:06;;;;;;;2.28;1.50;;;;;;;;;;5005160;28;20029;-45
2022/12/03 10:13:33;;;;;;;3.65;1.88;;;;;;;;;;5001778;28;20053;-43
2022/12/03 10:15:59;;;;;;;4.53;2.40;;;;;;;;;;5000789;28;20142;-44
2022/12/03 10:18:28;;;;;;;7.22;3.58;;;;;;;;;;4998276;28;20045;-44
2022/12/03 10:20:54;;;;;;;3.15;2.45;;;;;;;;;;5003571;28;20026;-44
2022/12/03 10:23:28;;;;;;;4.60;1.63;;;;;;;;;;5008197;28;20383;-44
2022/12/03 10:25:58;;;;;;;1.77;1.50;;;;;;;;;;5024466;28;20033;-43
2022/12/03 10:28:33;;;;;;;2.05;1.95;;;;;;;;;;5018159;28;20017;-45
2022/12/03 10:31:00;;;;;;;0.85;0.85;;;;;;;;;;5025504;28;20048;-46
2022/12/03 10:33:31;;;;;;;0.90;0.90;;;;;;;;;;5022399;28;20478;-45
2022/12/03 10:36:13;;;;;;;3.97;0.63;;;;;;;;;;5020243;28;20037;-46
2022/12/03 10:38:39;;;;;;;2.92;1.10;;;;;;;;;;5016013;28;20093;-45
2022/12/03 10:41:24;;;;;;;1.15;0.90;;;;;;;;;;4996142;28;20026;-46
2022/12/03 10:43:49;;;;;;;1.40;1.30;;;;;;;;;;4999472;28;20054;-44
2022/12/03 10:46:21;;;;;;;1.08;1.08;;;;;;;;;;4998027;28;20038;-46
2022/12/03 10:49:16;;;;;;;1.15;1.05;;;;;;;;;;5006744;28;20056;-44
2022/12/03 10:51:43;;;;;;;1.45;1.10;;;;;;;;;;5017986;28;20029;-44
2022/12/03 10:54:22;;;;;;;1.45;1.35;;;;;;;;;;5011927;28;20080;-46
2022/12/03 10:56:49;;;;;;;1.58;1.00;;;;;;;;;;4996287;28;20048;-45
2022/12/03 10:59:18;;;;;;;1.83;1.15;;;;;;;;;;4996804;28;20826;-48
2022/12/03 11:01:44;;;;;;;2.35;1.00;;;;;;;;;;4997908;28;20021;-45
2022/12/03 11:04:18;;;;;;;3.85;1.80;;;;;;;;;;5006659;28;20052;-43
2022/12/03 11:06:44;;;;;;;1.42;1.15;;;;;;;;;;5019236;28;20077;-44
2022/12/03 11:09:18;;;;;;;1.65;0.90;;;;;;;;;;5021620;28;20119;-43
2022/12/03 11:11:44;;;;;;;3.42;0.88;;;;;;;;;;5023405;28;20040;-47
2022/12/03 11:14:10;;;;;;;2.70;0.90;;;;;;;;;;5026869;28;20045;-44
2022/12/03 11:16:38;;;;;;;1.30;1.20;;;;;;;;;;5018941;28;20033;-45
2022/12/03 11:19:13;;;;;;;8.98;1.60;;;;;;;;;;5014407;28;20029;-45
2022/12/03 11:22:08;;;;;;;1.25;0.80;;;;;;;;;;5017299;28;20021;-45
2022/12/03 11:24:39;;;;;;;3.42;1.30;;;;;;;;;;5015907;28;20413;-46
2022/12/03 11:27:05;;;;;;;1.05;0.70;;;;;;;;;;5014785;28;20037;-45
2022/12/03 11:30:00;;;;;;;0.85;0.85;;;;;;;;;;5012276;28;20037;-44
2022/12/03 11:32:38;;;;;;;2.20;0.90;;;;;;;;;;5013267;28;20486;-46
2022/12/03 11:35:22;;;;;;;2.47;1.70;;;;;;;;;;5022341;28;20042;-45
2022/12/03 11:37:47;;;;;;;4.05;1.60;;;;;;;;;;5020588;28;20072;-44
2022/12/03 11:40:15;;;;;;;1.67;1.17;;;;;;;;;;5015122;28;20085;-46
2022/12/03 11:42:41;;;;;;;2.35;1.23;;;;;;;;;;5017607;28;20044;-44
2022/12/03 11:45:09;;;;;;;1.65;1.02;;;;;;;;;;5004621;28;20046;-43
2022/12/03 11:48:00;;;;;;;2.63;1.50;;;;;;;;;;5000459;28;20049;-45
2022/12/03 11:50:30;;;;;;;1.20;1.00;;;;;;;;;;5018778;28;20048;-47
2022/12/03 11:53:01;;;;;;;1.42;1.00;;;;;;;;;;5025790;28;20470;-44
2022/12/03 11:55:36;;;;;;;1.55;0.93;;;;;;;;;;5013456;28;20057;-46
2022/12/03 11:58:04;;;;;;;1.25;0.90;;;;;;;;;;5014832;28;20025;-44
2022/12/03 12:00:30;;;;;;;1.50;1.25;;;;;;;;;;4999040;28;20044;-46
2022/12/03 12:02:57;;;;;;;3.85;0.90;;;;;;;;;;5001905;28;20026;-46
2022/12/03 12:05:31;;;;;;;1.85;1.10;;;;;;;;;;5024566;28;20045;-43
2022/12/03 12:07:59;;;;;;;3.08;1.10;;;;;;;;;;5018864;28;20081;-44
2022/12/03 12:10:47;;;;;;;2.33;1.83;;;;;;;;;;5016359;28;20478;-46
2022/12/03 12:13:29;;;;;;;4.70;2.00;;;;;;;;;;5013742;28;20560;-46
2022/12/03 12:15:54;;;;;;;1.60;1.50;;;;;;;;;;5017312;28;20029;-48
2022/12/03 12:18:43;;;;;;;5.05;2.85;;;;;;;;;;5022454;28;20067;-38
2022/12/03 12:21:41;;;;;;;5.13;2.50;;;;;;;;;;5021111;28;20056;-45
2022/12/03 12:24:34;;;;;;;1.88;1.50;;;;;;;;;;5020408;28;20038;-49
2022/12/03 12:27:04;;;;;;;3.47;2.05;;;;;;;;;;5023824;28;20083;-51
2022/12/03 12:29:29;;;;;;;4.72;2.30;;;;;;;;;;5018534;28;20036;-45
2022/12/03 12:32:21;;;;;;;3.72;2.75;;;;;;;;;;5017591;28;20036;-43
2022/12/03 12:34:50;;;;;;;8.77;2.60;;;;;;;;;;5000787;28;20136;-47
2022/12/03 12:37:41;;;;;;;3.08;2.45;;;;;;;;;;4998884;28;20026;-45
2022/12/03 12:40:14;;;;;;;4.30;2.20;;;;;;;;;;5015341;28;20034;-44
2022/12/03 12:42:50;;;;;;;;;;;;;;;;;;5018861;28;20038;-46
2022/12/03 12:45:27;;;;;;;6.35;3.13;;;;;;;;;;5017707;28;19960;-46
2022/12/03 12:48:11;;;;;;;7.28;3.25;;;;;;;;;;5022069;28;20121;-49
2022/12/03 12:50:37;;;;;;;6.03;2.70;;;;;;;;;;5020718;28;20048;-45
2022/12/03 12:53:12;;;;;;;6.35;2.25;;;;;;;;;;5020841;28;20037;-49
2022/12/03 12:55:38;;;;;;;3.22;1.80;;;;;;;;;;5006635;28;20058;-43
2022/12/03 12:58:12;;;;;;;2.33;2.13;;;;;;;;;;5005707;28;20483;-49
2022/12/03 13:00:37;;;;;;;5.40;2.50;;;;;;;;;;5006712;28;20046;-48
2022/12/03 13:03:04;;;;;;;3.47;2.67;;;;;;;;;;5005802;28;20394;-47
2022/12/03 13:05:38;;;;;;;3.15;2.25;;;;;;;;;;5005701;28;20117;-48
2022/12/03 13:08:30;;;;;;;2.90;1.95;;;;;;;;;;5003020;28;20034;-43
2022/12/03 13:10:57;;;;;;;4.28;2.85;;;;;;;;;;5021422;28;20037;-46
2022/12/03 13:13:22;;;;;;;4.47;2.83;;;;;;;;;;5026106;28;20486;-43
2022/12/03 13:15:57;;;;;;;6.05;3.25;;;;;;;;;;5003276;28;20041;-44
2022/12/03 13:18:28;;;;;;;4.50;2.47;;;;;;;;;;5007558;28;20038;-43
2022/12/03 13:20:55;;;;;;;6.90;4.23;;;;;;;;;;5002656;28;20403;-45
2022/12/03 13:23:32;;;;;;;5.30;2.85;;;;;;;;;;5010453;28;20049;-47
2022/12/03 13:26:11;;;;;;;3.17;2.58;;;;;;;;;;5006400;28;20109;-46
2022/12/03 13:28:36;;;;;;;3.30;2.53;;;;;;;;;;5013048;28;20076;-44
2022/12/03 13:31:32;;;;;;;5.55;3.60;;;;;;;;;;5025709;28;20477;-45
2022/12/03 13:33:59;;;;;;;7.18;3.72;;;;;;;;;;5027106;28;20410;-46
2022/12/03 13:36:35;;;;;;;4.70;2.90;;;;;;;;;;5028432;28;20128;-44
2022/12/03 13:39:10;;;;;;;7.20;4.25;;;;;;;;;;5026198;28;20037;-44
2022/12/03 13:44:20;;;;;;;7.90;3.40;;;;;;;;;;5030495;28;20075;-44
2022/12/03 13:46:45;;;;;;;7.15;4.03;;;;;;;;;;5027557;28;20069;-43
2022/12/03 13:49:22;;;;;;;9.85;3.78;;;;;;;;;;5030410;28;20073;-46
2022/12/03 13:51:48;;;;;;;9.68;5.63;;;;;;;;;;5027904;28;20033;-43
2022/12/03 13:54:26;;;;;;;12.85;5.70;;;;;;;;;;5022128;28;20876;-43
2022/12/03 13:56:51;;;;;;;7.38;4.18;;;;;;;;;;5030145;28;20060;-43
2022/12/03 13:59:17;;;;;;;3.28;2.97;;;;;;;;;;5025698;28;20033;-43
2022/12/03 14:01:43;;;;;;;5.70;3.75;;;;;;;;;;5028736;28;20029;-42
2022/12/03 14:04:09;;;;;;;8.05;4.07;;;;;;;;;;5029367;28;20060;-43
2022/12/03 14:06:34;;;;;;;6.35;3.55;;;;;;;;;;5026278;28;20021;-43
2022/12/03 14:08:59;;;;;;;4.30;3.78;;;;;;;;;;5020576;28;20787;-44
2022/12/03 14:14:09;;;;;;;7.13;4.30;;;;;;;;;;5024082;28;20052;-46
2022/12/03 14:16:34;;;;;;;5.10;2.90;;;;;;;;;;5028650;28;20494;-42
2022/12/03 14:18:59;;;;;;;6.80;3.95;;;;;;;;;;5027719;28;20049;-43
2022/12/03 14:21:25;;;;;;;3.00;2.33;;;;;;;;;;5022626;28;20037;-40
2022/12/03 14:23:50;;;;;;;6.35;2.20;;;;;;;;;;5019852;28;20502;-41
2022/12/03 14:26:16;;;;;;;4.55;2.13;;;;;;;;;;5024161;28;20026;-42
2022/12/03 14:28:41;;;;;;;6.63;2.67;;;;;;;;;;5021980;28;20033;-41
2022/12/03 14:31:06;;;;;;;4.93;1.95;;;;;;;;;;5019804;28;20047;-41
2022/12/03 14:33:32;;;;;;;5.80;2.50;;;;;;;;;;5022828;28;20076;-43
2022/12/03 14:35:58;;;;;;;6.55;2.10;;;;;;;;;;5027574;28;20055;-44
2022/12/03 14:38:23;;;;;;;4.13;2.38;;;;;;;;;;5020956;28;20500;-40
2022/12/03 14:40:48;;;;;;;3.78;1.65;;;;;;;;;;5028314;28;20033;-40
2022/12/03 14:43:14;;;;;;;7.05;2.40;;;;;;;;;;5027183;28;20382;-44
2022/12/03 14:45:39;;;;;;;6.97;3.45;;;;;;;;;;5024562;28;20068;-40
2022/12/03 14:48:05;;;;;;;6.82;2.90;;;;;;;;;;5024473;28;20124;-40
2022/12/03 14:50:30;;;;;;;3.92;2.30;;;;;;;;;;5023919;28;20065;-40
2022/12/03 14:52:55;;;;;;;7.22;2.33;;;;;;;;;;5022597;28;20108;-40
2022/12/03 14:55:21;;;;;;;4.55;2.20;;;;;;;;;;5025067;28;20061;-41
2022/12/03 14:57:46;;;;;;;4.40;2.10;;;;;;;;;;5029157;28;20457;-41
2022/12/03 15:00:12;;;;;;;4.47;2.80;;;;;;;;;;5025223;28;20077;-40
2022/12/03 15:02:37;;;;;;;4.15;2.85;;;;;;;;;;5028267;28;20474;-40
2022/12/03 15:05:03;;;;;;;4.70;3.13;;;;;;;;;;5027791;28;20091;-46
2022/12/03 15:07:30;;;;;;;9.57;3.13;;;;;;;;;;5028820;28;20116;-46
2022/12/03 15:09:56;;;;;;;10.13;3.70;;;;;;;;;;5027942;28;20034;-40
2022/12/03 15:12:21;;;;;;;6.70;2.80;;;;;;;;;;5022961;28;20032;-40
2022/12/03 15:14:46;;;;;;;6.72;3.45;;;;;;;;;;5026168;28;20665;-43